Time;durP1;ratioP1;P1;durP2;ratioP2;P2;SDS_P1;SDS_P2;PMS_P1;PMS_P2;Temp;Humidity;BMP_temperature;BMP_pressure;BME280_temperature;BME280_humidity;BME280_pressure;Samples;Min_cycle;Max_cycle;Signal;HPM_P1;HPM_P2
2023/11/27 00:00:11;;;;;;;11.50;5.07;;;-2.70;99.90;;;;;;4452282;28;658777;-72
2023/11/27 00:02:58;;;;;;;24.17;8.70;;;-2.70;99.90;;;;;;4440592;27;657758;-71
2023/11/27 00:05:45;;;;;;;20.17;7.13;;;-2.60;99.90;;;;;;4460091;28;658360;-71
2023/11/27 00:08:33;;;;;;;26.57;10.17;;;-2.60;99.90;;;;;;4425497;28;657779;-71
2023/11/27 00:11:20;;;;;;;22.70;8.70;;;-2.60;99.90;;;;;;4448496;28;659240;-71
2023/11/27 00:14:08;;;;;;;30.00;9.50;;;-2.60;99.90;;;;;;4432523;27;657918;-71
2023/11/27 00:16:57;;;;;;;23.80;9.80;;;-2.60;99.90;;;;;;4462491;27;657871;-72
2023/11/27 00:19:44;;;;;;;23.33;8.90;;;-2.60;99.90;;;;;;4435449;27;658617;-71
2023/11/27 00:22:31;;;;;;;19.20;6.47;;;-2.60;99.90;;;;;;4456185;27;657289;-72
2023/11/27 00:25:18;;;;;;;6.10;2.50;;;-2.60;99.90;;;;;;4442217;27;657547;-71
2023/11/27 00:28:06;;;;;;;27.27;9.00;;;-2.60;99.90;;;;;;4464036;27;657741;-71
2023/11/27 00:30:53;;;;;;;24.77;8.90;;;-2.60;99.90;;;;;;4440671;27;659297;-72
2023/11/27 00:33:42;;;;;;;23.07;8.23;;;-2.60;99.90;;;;;;4447436;28;658423;-72
2023/11/27 00:36:29;;;;;;;5.30;3.33;;;-2.60;99.90;;;;;;4439232;28;657764;-71
2023/11/27 00:39:16;;;;;;;29.73;9.67;;;-2.50;99.90;;;;;;4446144;28;656211;-72
2023/11/27 00:42:03;;;;;;;21.63;8.93;;;-2.60;99.90;;;;;;4428858;28;658256;-72
2023/11/27 00:44:51;;;;;;;20.20;8.30;;;-2.60;99.90;;;;;;4455298;28;657869;-70
2023/11/27 00:47:38;;;;;;;26.67;8.87;;;-2.60;99.90;;;;;;4431693;28;657526;-71
2023/11/27 00:50:26;;;;;;;23.53;8.60;;;-2.50;99.90;;;;;;4459075;28;658008;-72
2023/11/27 00:53:14;;;;;;;23.47;8.97;;;-2.50;99.90;;;;;;4437443;28;657683;-71
2023/11/27 00:56:01;;;;;;;24.37;7.70;;;-2.50;99.90;;;;;;4455039;28;658562;-72
2023/11/27 00:58:48;;;;;;;24.93;8.40;;;-2.60;99.90;;;;;;4425580;28;657804;-71
2023/11/27 01:01:35;;;;;;;21.90;8.37;;;-2.60;99.90;;;;;;4442465;28;658151;-71
2023/11/27 01:04:22;;;;;;;21.07;8.37;;;-2.60;99.90;;;;;;4431216;28;657258;-70
2023/11/27 01:07:11;;;;;;;20.20;7.70;;;-2.70;99.90;;;;;;4465733;28;658188;-72
2023/11/27 01:09:58;;;;;;;19.23;7.73;;;-2.60;99.90;;;;;;4441338;27;658427;-71
2023/11/27 01:12:45;;;;;;;21.50;7.90;;;-2.70;99.90;;;;;;4458187;27;658326;-71
2023/11/27 01:15:32;;;;;;;19.92;7.22;;;-2.60;99.90;;;;;;4436135;28;661364;-70
2023/11/27 01:18:20;;;;;;;16.63;7.07;;;-2.50;99.90;;;;;;4456430;27;659098;-72
2023/11/27 01:21:07;;;;;;;20.10;7.00;;;-2.60;99.90;;;;;;4466750;27;657300;-72
2023/11/27 01:23:56;;;;;;;18.67;7.10;;;-2.70;99.90;;;;;;4426943;28;658558;-72
2023/11/27 01:26:43;;;;;;;21.10;7.63;;;-2.60;99.90;;;;;;4432664;27;658774;-71
2023/11/27 01:29:30;;;;;;;20.93;7.97;;;-2.60;99.90;;;;;;4457022;27;657846;-71
2023/11/27 01:32:17;;;;;;;22.10;7.57;;;-2.70;99.90;;;;;;4440262;27;657687;-70
2023/11/27 01:35:05;;;;;;;17.20;7.10;;;-2.60;99.90;;;;;;4454238;28;657754;-72
2023/11/27 01:37:53;;;;;;;18.23;7.33;;;-2.60;99.90;;;;;;4422796;28;658095;-71
2023/11/27 01:40:41;;;;;;;18.63;7.87;;;-2.60;99.90;;;;;;4453332;28;657658;-71
2023/11/27 01:43:29;;;;;;;16.40;7.17;;;-2.70;99.90;;;;;;4431827;27;657316;-71
2023/11/27 01:46:21;;;;;;;10.80;3.30;;;-2.60;99.90;;;;;;4457341;27;658514;-71
2023/11/27 01:49:10;;;;;;;23.30;8.27;;;-2.60;99.90;;;;;;4416037;27;659547;-71
2023/11/27 01:51:57;;;;;;;20.57;7.90;;;-2.60;99.90;;;;;;4360378;27;658635;-69
2023/11/27 01:54:45;;;;;;;15.90;6.53;;;-2.70;99.90;;;;;;4332965;27;657825;-69
2023/11/27 01:57:34;;;;;;;19.20;7.20;;;-2.70;99.90;;;;;;4337450;28;657586;-69
2023/11/27 02:00:22;;;;;;;25.90;9.10;;;-2.70;99.90;;;;;;4438602;28;657892;-71
2023/11/27 02:03:09;;;;;;;19.17;6.33;;;-2.70;99.90;;;;;;4427920;28;659264;-72
2023/11/27 02:05:56;;;;;;;20.43;9.00;;;-2.70;99.90;;;;;;4451297;28;657704;-72
2023/11/27 02:08:44;;;;;;;19.57;8.20;;;-2.70;99.90;;;;;;4431868;27;657524;-72
2023/11/27 02:11:31;;;;;;;20.80;7.80;;;-2.80;99.90;;;;;;4458710;27;658156;-72
2023/11/27 02:14:19;;;;;;;21.87;8.70;;;-2.70;99.90;;;;;;4437633;27;657762;-72
2023/11/27 02:17:07;;;;;;;26.67;9.40;;;-2.70;99.90;;;;;;4457546;27;657998;-71
2023/11/27 02:19:54;;;;;;;15.57;5.73;;;-2.70;99.90;;;;;;4424876;28;657925;-72
2023/11/27 02:22:41;;;;;;;11.67;4.87;;;-2.70;99.90;;;;;;4451394;28;657786;-72
2023/11/27 02:25:29;;;;;;;17.40;7.63;;;-2.70;99.90;;;;;;4435268;28;657464;-71
2023/11/27 02:28:17;;;;;;;20.67;9.80;;;-2.60;99.90;;;;;;4455867;27;657486;-72
2023/11/27 02:31:05;;;;;;;12.07;4.90;;;-2.70;99.90;;;;;;4432322;28;657754;-71
2023/11/27 02:33:52;;;;;;;19.17;6.93;;;-2.60;99.90;;;;;;4460295;27;657470;-72
2023/11/27 02:36:39;;;;;;;11.23;4.20;;;-2.60;99.90;;;;;;4450746;28;657792;-71
2023/11/27 02:39:28;;;;;;;14.17;6.40;;;-2.60;99.90;;;;;;4450607;28;657870;-72
2023/11/27 02:42:17;;;;;;;23.73;9.97;;;-2.60;99.90;;;;;;4432606;27;657839;-71
2023/11/27 02:45:05;;;;;;;18.43;8.90;;;-2.70;99.90;;;;;;4429312;27;659254;-71
2023/11/27 02:47:53;;;;;;;17.73;7.37;;;-2.60;99.90;;;;;;4433268;27;657756;-70
2023/11/27 02:50:40;;;;;;;22.97;10.10;;;-2.60;99.90;;;;;;4455155;27;659634;-72
2023/11/27 02:53:28;;;;;;;5.47;2.93;;;-2.70;99.90;;;;;;4443058;27;658632;-71
2023/11/27 02:56:15;;;;;;;30.93;11.27;;;-2.70;99.90;;;;;;4460804;27;657129;-71
2023/11/27 02:59:04;;;;;;;22.27;10.60;;;-2.80;99.90;;;;;;4430089;28;658836;-70
2023/11/27 03:01:52;;;;;;;16.03;6.50;;;-2.70;99.90;;;;;;4459659;27;658377;-71
2023/11/27 03:04:39;;;;;;;19.37;9.13;;;-2.70;99.90;;;;;;4432757;28;658974;-71
2023/11/27 03:07:26;;;;;;;20.37;9.43;;;-2.70;99.90;;;;;;4459709;28;658037;-72
2023/11/27 03:10:14;;;;;;;9.60;4.20;;;-2.70;99.90;;;;;;4428375;28;657562;-71
2023/11/27 03:13:01;;;;;;;7.00;3.53;;;-2.70;99.90;;;;;;4462896;28;657006;-72
2023/11/27 03:15:49;;;;;;;10.90;5.77;;;-2.70;99.90;;;;;;4430949;28;656532;-71
2023/11/27 03:18:37;;;;;;;22.83;10.43;;;-2.70;99.90;;;;;;4456238;28;658038;-70
2023/11/27 03:21:24;;;;;;;20.30;8.87;;;-2.70;99.90;;;;;;4433170;27;658490;-72
2023/11/27 03:24:11;;;;;;;17.27;9.23;;;-2.70;99.90;;;;;;4445768;28;657659;-72
2023/11/27 03:26:58;;;;;;;24.57;11.00;;;-2.70;99.90;;;;;;4439142;27;657809;-71
2023/11/27 03:29:45;;;;;;;26.40;11.30;;;-2.70;99.90;;;;;;4464483;28;658764;-72
2023/11/27 03:32:34;;;;;;;22.13;9.00;;;-2.70;99.90;;;;;;4428239;28;658957;-70
2023/11/27 03:35:21;;;;;;;20.83;9.20;;;-2.70;99.90;;;;;;4458790;28;658041;-72
2023/11/27 03:38:08;;;;;;;13.30;4.87;;;-2.60;99.90;;;;;;4444835;27;657578;-72
2023/11/27 03:40:55;;;;;;;9.27;3.63;;;-2.60;99.90;;;;;;4455473;28;659354;-72
2023/11/27 03:43:43;;;;;;;21.30;9.03;;;-2.60;99.90;;;;;;4439115;28;656538;-71
2023/11/27 03:46:30;;;;;;;23.80;9.20;;;-2.70;99.90;;;;;;4458321;27;659168;-72
2023/11/27 03:49:19;;;;;;;19.40;9.67;;;-2.80;99.90;;;;;;4452383;28;657536;-71
2023/11/27 03:52:07;;;;;;;11.23;4.87;;;-2.80;99.90;;;;;;4449261;27;657581;-72
2023/11/27 03:54:54;;;;;;;16.23;8.17;;;-2.80;99.90;;;;;;4421306;28;658824;-72
2023/11/27 03:57:41;;;;;;;18.83;9.17;;;-2.70;99.90;;;;;;4445739;28;658331;-72
2023/11/27 04:00:28;;;;;;;17.90;7.47;;;-2.70;99.90;;;;;;4433714;27;657772;-71
2023/11/27 04:03:16;;;;;;;18.63;8.93;;;-2.70;99.90;;;;;;4452248;27;657456;-72
2023/11/27 04:06:04;;;;;;;14.23;7.17;;;-2.70;99.90;;;;;;4437056;27;657719;-71
2023/11/27 04:08:52;;;;;;;18.50;9.70;;;-2.70;99.90;;;;;;4455864;27;657745;-72
2023/11/27 04:11:39;;;;;;;21.67;10.40;;;-2.80;99.90;;;;;;4431305;28;658588;-71
2023/11/27 04:14:26;;;;;;;13.68;7.05;;;-2.80;99.90;;;;;;4452311;27;659090;-72
2023/11/27 04:17:14;;;;;;;23.13;11.60;;;-2.80;99.90;;;;;;4434386;27;657508;-72
2023/11/27 04:20:05;;;;;;;14.13;6.70;;;-2.80;99.90;;;;;;4443593;28;658916;-72
2023/11/27 04:22:54;;;;;;;20.73;10.13;;;-2.80;99.90;;;;;;4425390;28;657708;-70
2023/11/27 04:25:41;;;;;;;25.67;9.07;;;-2.80;99.90;;;;;;4445173;27;658159;-71
2023/11/27 04:28:28;;;;;;;20.73;9.37;;;-2.70;99.90;;;;;;4435828;27;659335;-72
2023/11/27 04:31:15;;;;;;;22.63;10.07;;;-2.70;99.90;;;;;;4458322;27;658080;-72
2023/11/27 04:34:02;;;;;;;22.07;10.97;;;-2.70;99.90;;;;;;4444391;27;659332;-71
2023/11/27 04:36:50;;;;;;;22.97;10.73;;;-2.60;99.90;;;;;;4459859;27;659481;-72
2023/11/27 04:39:39;;;;;;;18.57;8.47;;;-2.70;99.90;;;;;;4455340;28;658648;-72
2023/11/27 04:42:26;;;;;;;19.83;9.47;;;-2.70;99.90;;;;;;4459323;28;657362;-72
2023/11/27 04:45:13;;;;;;;21.63;10.70;;;-2.70;99.90;;;;;;4424858;28;657858;-71
2023/11/27 04:48:01;;;;;;;25.20;11.20;;;-2.70;99.90;;;;;;4456322;28;658293;-72
2023/11/27 04:50:48;;;;;;;23.13;11.23;;;-2.80;99.90;;;;;;4429610;28;659027;-71
2023/11/27 04:53:35;;;;;;;27.27;10.47;;;-2.80;99.90;;;;;;4443467;28;659464;-70
2023/11/27 04:56:24;;;;;;;15.30;6.72;;;-2.90;99.90;;;;;;4435775;28;658685;-70
2023/11/27 04:59:11;;;;;;;26.27;11.67;;;-2.80;99.90;;;;;;4448240;28;657595;-72
2023/11/27 05:01:58;;;;;;;22.57;9.33;;;-2.90;99.90;;;;;;4435924;28;658691;-72
2023/11/27 05:04:45;;;;;;;21.43;10.77;;;-2.70;99.90;;;;;;4455518;28;658898;-72
2023/11/27 05:07:33;;;;;;;21.83;11.10;;;-2.80;99.90;;;;;;4430727;28;658922;-72
2023/11/27 05:10:20;;;;;;;22.63;10.17;;;-2.70;99.90;;;;;;4457845;28;659661;-72
2023/11/27 05:13:09;;;;;;;23.45;11.27;;;-2.70;99.90;;;;;;4432424;28;659130;-71
2023/11/27 05:15:56;;;;;;;25.00;11.47;;;-2.70;99.90;;;;;;4450844;28;658521;-72
2023/11/27 05:18:44;;;;;;;22.30;11.17;;;-2.80;99.90;;;;;;4430717;28;658949;-71
2023/11/27 05:21:31;;;;;;;16.30;7.90;;;-2.80;99.90;;;;;;4462383;28;658424;-72
2023/11/27 05:24:18;;;;;;;25.93;10.83;;;-2.70;99.90;;;;;;4441053;28;657917;-71
2023/11/27 05:27:05;;;;;;;22.40;10.97;;;-2.80;99.90;;;;;;4464531;28;659024;-72
2023/11/27 05:29:54;;;;;;;24.70;11.17;;;-2.80;99.90;;;;;;4443066;28;658531;-71
2023/11/27 05:32:42;;;;;;;21.80;7.93;;;-2.80;99.90;;;;;;4462651;28;658491;-72
2023/11/27 05:35:29;;;;;;;22.73;11.33;;;-2.70;99.90;;;;;;4438315;28;657825;-72
2023/11/27 05:38:16;;;;;;;22.77;9.17;;;-2.80;99.90;;;;;;4445815;28;659064;-72
2023/11/27 05:41:04;;;;;;;25.10;11.67;;;-2.80;99.90;;;;;;4424550;28;657647;-71
2023/11/27 05:43:52;;;;;;;24.83;12.30;;;-2.80;99.90;;;;;;4451033;28;658405;-72
2023/11/27 05:46:40;;;;;;;22.37;10.87;;;-2.80;99.90;;;;;;4422040;28;659357;-72
2023/11/27 05:49:30;;;;;;;26.05;12.75;;;-2.90;99.90;;;;;;4430199;28;658593;-71
2023/11/27 05:52:18;;;;;;;25.73;11.93;;;-2.80;99.90;;;;;;4291120;28;658914;-69
2023/11/27 05:55:06;;;;;;;27.03;11.90;;;-2.80;99.90;;;;;;4289497;28;658881;-72
2023/11/27 05:57:54;;;;;;;27.73;12.60;;;-2.90;99.90;;;;;;4394375;27;658733;-72
2023/11/27 06:00:41;;;;;;;26.20;13.10;;;-2.90;99.90;;;;;;4452991;27;658233;-72
2023/11/27 06:03:30;;;;;;;22.63;10.70;;;-2.90;99.90;;;;;;4438721;27;658742;-72
2023/11/27 06:06:17;;;;;;;26.83;12.27;;;-3.00;99.90;;;;;;4448136;27;658872;-71
2023/11/27 06:09:06;;;;;;;30.67;14.30;;;-3.00;99.90;;;;;;4464939;27;658824;-73
2023/11/27 06:11:54;;;;;;;32.17;15.73;;;-3.00;99.90;;;;;;4441004;27;658634;-71
2023/11/27 06:14:41;;;;;;;28.53;13.47;;;-3.00;99.90;;;;;;4464877;27;658955;-72
2023/11/27 06:17:28;;;;;;;28.38;13.93;;;-2.90;99.90;;;;;;4430660;27;659044;-72
2023/11/27 06:20:18;;;;;;;29.73;14.20;;;-2.90;99.90;;;;;;4456503;27;658416;-73
2023/11/27 06:23:06;;;;;;;25.60;11.77;;;-2.90;99.90;;;;;;4426127;28;658658;-72
2023/11/27 06:25:53;;;;;;;27.33;12.67;;;-2.80;99.90;;;;;;4440931;28;658807;-72
2023/11/27 06:28:40;;;;;;;17.67;7.73;;;-2.90;99.90;;;;;;4454828;27;659563;-71
2023/11/27 06:31:28;;;;;;;26.67;13.73;;;-2.90;99.90;;;;;;4439161;27;657783;-72
2023/11/27 06:34:15;;;;;;;27.40;12.97;;;-2.90;99.90;;;;;;4460791;28;660126;-72
2023/11/27 06:37:04;;;;;;;34.40;13.60;;;-2.90;99.90;;;;;;4433457;28;659352;-71
2023/11/27 06:39:51;;;;;;;33.67;14.70;;;-2.80;99.90;;;;;;4462507;27;658728;-72
2023/11/27 06:42:38;;;;;;;34.40;15.43;;;-2.90;99.90;;;;;;4431303;27;659077;-72
2023/11/27 06:45:25;;;;;;;25.67;10.02;;;-3.00;99.90;;;;;;4462062;27;660092;-72
2023/11/27 06:48:13;;;;;;;30.10;13.63;;;-3.00;99.90;;;;;;4435877;28;659080;-72
2023/11/27 06:51:00;;;;;;;31.73;16.00;;;-3.00;99.90;;;;;;4454400;28;659972;-73
2023/11/27 06:53:49;;;;;;;29.73;14.13;;;-2.90;99.90;;;;;;4450797;28;658916;-71
2023/11/27 06:56:36;;;;;;;32.10;15.33;;;-2.90;99.90;;;;;;4453729;28;658324;-72
2023/11/27 06:59:24;;;;;;;15.40;6.33;;;-2.80;99.90;;;;;;4430778;28;659002;-73
2023/11/27 07:02:12;;;;;;;27.97;13.97;;;-2.80;99.90;;;;;;4457236;28;657972;-73
2023/11/27 07:04:59;;;;;;;34.73;15.27;;;-2.90;99.90;;;;;;4436976;27;659478;-73
2023/11/27 07:07:47;;;;;;;35.90;16.10;;;-2.80;99.90;;;;;;4444185;28;658610;-73
2023/11/27 07:10:36;;;;;;;36.30;14.87;;;-2.70;99.90;;;;;;4434138;27;658705;-72
2023/11/27 07:13:23;;;;;;;38.43;15.73;;;-2.80;99.90;;;;;;4427697;28;658804;-72
2023/11/27 07:16:10;;;;;;;28.57;12.23;;;-2.80;99.90;;;;;;4450077;27;659289;-72
2023/11/27 07:18:58;;;;;;;31.63;14.00;;;-2.70;99.90;;;;;;4433479;27;658520;-71
2023/11/27 07:21:45;;;;;;;36.23;14.13;;;-2.70;99.90;;;;;;4460348;27;658952;-72
2023/11/27 07:24:32;;;;;;;17.05;7.90;;;-2.70;99.90;;;;;;4442556;27;658391;-72
2023/11/27 07:27:22;;;;;;;24.40;12.00;;;-2.70;99.90;;;;;;4451420;28;657623;-72
2023/11/27 07:30:11;;;;;;;37.07;18.00;;;-2.60;99.90;;;;;;4427689;28;660029;-70
2023/11/27 07:33:01;;;;;;;36.07;17.00;;;-2.70;99.90;;;;;;4420461;28;658930;-72
2023/11/27 07:35:50;;;;;;;36.10;15.77;;;-2.50;99.90;;;;;;4430366;28;659182;-72
2023/11/27 07:38:37;;;;;;;19.60;8.07;;;-2.60;99.90;;;;;;4460488;28;658987;-72
2023/11/27 07:41:24;;;;;;;32.67;14.50;;;-2.50;99.90;;;;;;4426147;28;658292;-72
2023/11/27 07:44:13;;;;;;;30.23;13.37;;;-2.50;99.90;;;;;;4451433;28;658807;-72
2023/11/27 07:47:00;;;;;;;31.10;14.53;;;-2.60;99.90;;;;;;4430388;28;660111;-72
2023/11/27 07:49:47;;;;;;;24.33;9.27;;;-2.60;99.90;;;;;;4442309;28;658892;-70
2023/11/27 07:52:35;;;;;;;28.03;13.07;;;-2.60;99.90;;;;;;4451712;27;658017;-71
2023/11/27 07:55:23;;;;;;;38.87;15.73;;;-2.60;99.90;;;;;;4434266;28;658404;-71
2023/11/27 07:58:14;;;;;;;31.03;14.90;;;-2.70;99.90;;;;;;4448285;27;659231;-72
2023/11/27 08:01:02;;;;;;;43.70;12.13;;;-2.50;99.90;;;;;;4436036;27;659169;-72
2023/11/27 08:03:50;;;;;;;33.57;14.73;;;-2.40;99.90;;;;;;4424729;27;658886;-72
2023/11/27 08:06:37;;;;;;;31.37;14.80;;;-2.40;99.90;;;;;;4462240;27;658888;-73
2023/11/27 08:09:24;;;;;;;19.50;9.23;;;-2.30;99.90;;;;;;4429292;28;658515;-72
2023/11/27 08:12:12;;;;;;;30.67;11.73;;;-2.20;99.90;;;;;;4443761;27;657211;-72
2023/11/27 08:15:00;;;;;;;28.97;12.33;;;-2.20;99.90;;;;;;4431451;27;659859;-72
2023/11/27 08:17:50;;;;;;;34.03;14.27;;;-2.50;99.90;;;;;;4452224;27;658995;-72
2023/11/27 08:20:38;;;;;;;25.30;9.87;;;-2.30;99.90;;;;;;4429514;27;659151;-72
2023/11/27 08:23:25;;;;;;;7.17;3.53;;;-2.10;99.90;;;;;;4431759;27;658416;-72
2023/11/27 08:26:15;;;;;;;13.17;5.27;;;-1.90;99.90;;;;;;4455078;27;656528;-71
2023/11/27 08:29:02;;;;;;;13.30;5.50;;;-1.70;99.90;;;;;;4449496;28;657984;-70
2023/11/27 08:31:53;;;;;;;22.47;10.40;;;-1.60;99.90;;;;;;4455579;28;658767;-71
2023/11/27 08:34:42;;;;;;;18.57;7.87;;;-1.60;99.90;;;;;;4440232;28;659565;-72
2023/11/27 08:37:35;;;;;;;21.17;8.17;;;-1.20;99.90;;;;;;4436091;27;658222;-72
2023/11/27 08:40:23;;;;;;;17.20;7.40;;;-1.20;99.90;;;;;;4425255;28;658251;-71
2023/11/27 08:43:10;;;;;;;8.30;3.73;;;-0.80;99.90;;;;;;4448574;28;659176;-70
2023/11/27 08:45:57;;;;;;;2.93;2.20;;;-0.90;99.90;;;;;;4452028;28;656546;-71
2023/11/27 08:48:45;;;;;;;14.87;7.33;;;-0.70;99.90;;;;;;4459117;28;657914;-72
2023/11/27 08:51:33;;;;;;;13.73;6.23;;;-0.60;99.90;;;;;;4460134;28;657499;-72
2023/11/27 08:54:20;;;;;;;10.20;4.43;;;-0.20;99.90;;;;;;4433514;28;659071;-72
2023/11/27 08:57:10;;;;;;;17.17;6.83;;;-0.60;99.90;;;;;;4437330;28;657502;-70
2023/11/27 08:59:57;;;;;;;14.13;5.90;;;-1.20;99.90;;;;;;4455960;28;658254;-71
2023/11/27 09:02:45;;;;;;;13.23;5.70;;;-1.20;99.90;;;;;;4462189;28;659376;-72
2023/11/27 09:05:33;;;;;;;9.40;3.63;;;-1.20;99.90;;;;;;4454988;28;659507;-70
2023/11/27 09:08:22;;;;;;;7.20;4.07;;;-1.00;99.90;;;;;;4462349;28;656895;-72
2023/11/27 09:11:11;;;;;;;17.23;5.47;;;-0.80;99.90;;;;;;4436020;28;656286;-71
2023/11/27 09:13:58;;;;;;;11.37;5.23;;;-0.70;99.90;;;;;;4431811;28;657610;-72
2023/11/27 09:16:45;;;;;;;17.30;6.67;;;0.00;99.90;;;;;;4452602;28;657912;-73
2023/11/27 09:19:32;;;;;;;9.43;4.83;;;0.60;99.90;;;;;;4446264;28;656466;-71
2023/11/27 09:22:21;;;;;;;3.50;1.97;;;0.90;99.90;;;;;;4467492;28;656228;-72
2023/11/27 09:25:12;;;;;;;12.40;5.27;;;0.90;99.90;;;;;;4441765;28;655812;-72
2023/11/27 09:27:59;;;;;;;10.27;4.77;;;0.80;99.90;;;;;;4428712;28;658133;-72
2023/11/27 09:30:47;;;;;;;12.13;6.03;;;1.10;99.90;;;;;;4446197;28;656360;-71
2023/11/27 09:33:34;;;;;;;15.00;5.03;;;1.00;99.90;;;;;;4440839;27;656978;-72
2023/11/27 09:36:22;;;;;;;12.10;5.70;;;1.60;99.90;;;;;;4451944;28;656896;-73
2023/11/27 09:39:10;;;;;;;12.87;5.93;;;1.40;99.90;;;;;;4428549;27;657103;-73
2023/11/27 09:41:59;;;;;;;10.73;5.57;;;1.90;99.90;;;;;;4433815;27;656047;-70
2023/11/27 09:44:46;;;;;;;3.07;1.87;;;1.90;99.90;;;;;;4459685;27;657046;-72
2023/11/27 09:47:34;;;;;;;10.57;5.00;;;2.30;99.90;;;;;;4434406;27;655552;-73
2023/11/27 09:50:21;;;;;;;4.83;1.90;;;1.70;99.90;;;;;;4461639;27;656340;-70
2023/11/27 09:53:09;;;;;;;11.85;4.85;;;2.50;99.90;;;;;;4444164;27;655597;-72
2023/11/27 09:55:56;;;;;;;9.87;4.80;;;2.30;99.90;;;;;;4447642;27;656740;-73
2023/11/27 09:58:45;;;;;;;13.47;5.30;;;2.60;99.90;;;;;;4438618;27;655317;-73
2023/11/27 10:01:32;;;;;;;9.63;4.47;;;3.90;93.10;;;;;;4463980;27;657808;-72
2023/11/27 10:04:20;;;;;;;7.53;3.90;;;3.00;90.20;;;;;;4438737;27;655471;-72
2023/11/27 10:07:07;;;;;;;15.23;4.77;;;2.80;97.60;;;;;;4439005;27;656944;-71
2023/11/27 10:09:54;;;;;;;13.40;5.73;;;4.30;90.50;;;;;;4452833;27;658022;-72
2023/11/27 10:12:45;;;;;;;11.40;5.57;;;5.30;78.30;;;;;;4462254;28;656146;-71
2023/11/27 10:15:34;;;;;;;6.83;3.10;;;4.50;76.60;;;;;;4418372;27;657438;-71
2023/11/27 10:18:21;;;;;;;10.63;5.47;;;4.10;74.10;;;;;;4465118;28;656389;-71
2023/11/27 10:21:14;;;;;;;9.27;4.43;;;3.10;83.90;;;;;;4444748;27;656397;-71
2023/11/27 10:24:01;;;;;;;7.83;3.37;;;4.10;77.00;;;;;;4427975;28;655620;-72
2023/11/27 10:26:48;;;;;;;12.03;6.00;;;3.60;80.30;;;;;;4433263;28;655573;-72
2023/11/27 10:29:36;;;;;;;9.60;4.20;;;2.40;84.60;;;;;;4465593;28;656712;-72
2023/11/27 10:32:24;;;;;;;5.90;2.43;;;2.50;96.80;;;;;;4427848;28;656244;-71
2023/11/27 10:35:12;;;;;;;11.75;5.38;;;1.70;99.90;;;;;;4452691;27;655320;-71
2023/11/27 10:38:00;;;;;;;10.93;4.93;;;1.20;99.90;;;;;;4437886;27;657610;-70
2023/11/27 10:40:47;;;;;;;1.47;0.70;;;2.30;99.90;;;;;;4470131;27;655905;-72
2023/11/27 10:43:35;;;;;;;13.03;3.87;;;3.50;95.60;;;;;;4428571;28;656346;-72
2023/11/27 10:46:22;;;;;;;12.13;4.77;;;3.90;85.40;;;;;;4461958;27;656910;-72
2023/11/27 10:49:14;;;;;;;13.23;5.50;;;5.00;83.30;;;;;;4432302;27;657921;-70
2023/11/27 10:52:02;;;;;;;4.90;2.33;;;6.50;72.10;;;;;;4440837;27;656907;-71
2023/11/27 10:54:49;;;;;;;8.27;2.67;;;7.30;62.30;;;;;;4435666;27;655394;-70
2023/11/27 10:57:36;;;;;;;2.23;1.43;;;5.00;64.50;;;;;;4453024;27;656348;-72
2023/11/27 11:00:29;;;;;;;12.30;5.60;;;3.80;75.10;;;;;;4436457;27;656131;-72
2023/11/27 11:03:19;;;;;;;10.63;5.17;;;3.20;90.60;;;;;;4442545;27;656277;-73
2023/11/27 11:06:08;;;;;;;10.17;4.97;;;4.70;90.10;;;;;;4427150;28;656630;-71
2023/11/27 11:08:56;;;;;;;8.23;3.23;;;5.50;69.30;;;;;;4431201;27;658038;-70
2023/11/27 11:11:46;;;;;;;8.60;3.73;;;4.40;70.90;;;;;;4436724;27;656137;-73
2023/11/27 11:14:34;;;;;;;5.07;3.17;;;3.10;82.20;;;;;;4435000;28;656642;-72
2023/11/27 11:17:29;;;;;;;13.93;4.23;;;2.90;90.80;;;;;;4458929;27;655680;-73
2023/11/27 11:20:25;;;;;;;11.23;3.50;;;3.60;84.90;;;;;;4438139;27;657199;-73
2023/11/27 11:23:29;;;;;;;8.63;3.37;;;3.40;81.10;;;;;;4424382;28;656239;-71
2023/11/27 11:26:34;;;;;;;13.40;4.95;;;3.50;82.40;;;;;;4446198;27;656097;-73
2023/11/27 11:29:26;;;;;;;12.37;4.67;;;3.30;84.80;;;;;;4435469;28;657359;-73
2023/11/27 11:32:16;;;;;;;10.40;5.47;;;3.90;85.80;;;;;;4438109;27;657888;-73
2023/11/27 11:35:04;;;;;;;12.23;5.30;;;4.60;72.80;;;;;;4421147;28;656792;-72
2023/11/27 11:37:51;;;;;;;5.33;2.17;;;4.40;69.70;;;;;;4451189;28;656939;-73
2023/11/27 11:40:45;;;;;;;4.57;2.23;;;3.30;71.30;;;;;;4441946;28;655897;-72
2023/11/27 11:43:41;;;;;;;10.50;4.80;;;2.90;75.60;;;;;;4461736;27;655715;-73
2023/11/27 11:46:28;;;;;;;13.90;5.00;;;2.50;82.00;;;;;;4397376;28;657340;-73
2023/11/27 11:49:19;;;;;;;7.23;2.70;;;4.20;75.00;;;;;;4444882;28;657216;-73
2023/11/27 11:52:09;;;;;;;12.70;5.03;;;5.00;66.60;;;;;;4421518;28;655900;-73
2023/11/27 11:54:56;;;;;;;9.50;6.00;;;5.20;67.50;;;;;;4428646;28;656963;-72
2023/11/27 11:57:44;;;;;;;7.83;3.03;;;5.40;65.70;;;;;;4431282;28;655914;-71
2023/11/27 12:00:42;;;;;;;5.37;2.30;;;5.20;64.70;;;;;;4370341;28;656553;-71
2023/11/27 12:03:31;;;;;;;3.77;2.07;;;4.10;70.40;;;;;;4255941;27;655522;-70
2023/11/27 12:06:18;;;;;;;11.93;5.27;;;3.70;71.60;;;;;;4364631;28;656060;-73
2023/11/27 12:09:05;;;;;;;10.33;4.73;;;4.30;69.40;;;;;;4394681;27;657833;-73
2023/11/27 12:11:57;;;;;;;1.90;1.07;;;4.00;68.20;;;;;;4433601;28;656784;-71
2023/11/27 12:14:46;;;;;;;8.87;3.77;;;3.90;65.50;;;;;;4441916;27;656619;-72
2023/11/27 12:17:34;;;;;;;13.63;6.20;;;2.90;68.20;;;;;;4441352;27;655886;-73
2023/11/27 12:20:21;;;;;;;10.30;2.93;;;3.00;75.70;;;;;;4451013;28;656919;-73
2023/11/27 12:23:09;;;;;;;12.57;5.17;;;4.10;68.90;;;;;;4433713;28;657016;-73
2023/11/27 12:25:59;;;;;;;9.73;4.65;;;4.00;68.30;;;;;;4431751;28;657350;-72
2023/11/27 12:28:46;;;;;;;9.27;4.60;;;4.00;70.90;;;;;;4440517;28;656083;-73
2023/11/27 12:31:35;;;;;;;13.43;4.57;;;3.90;69.70;;;;;;4430429;28;655041;-72
2023/11/27 12:34:24;;;;;;;7.63;2.77;;;3.30;68.80;;;;;;4448891;28;657334;-70
2023/11/27 12:37:11;;;;;;;5.90;2.53;;;2.60;71.30;;;;;;4456010;28;656044;-72
2023/11/27 12:39:58;;;;;;;11.00;4.63;;;2.70;73.10;;;;;;4444100;27;655613;-72
2023/11/27 12:42:46;;;;;;;3.10;1.53;;;3.00;74.90;;;;;;4462656;28;657606;-72
2023/11/27 12:45:34;;;;;;;11.88;5.05;;;4.10;68.10;;;;;;4435651;28;655256;-71
2023/11/27 12:48:23;;;;;;;6.67;2.97;;;3.90;64.00;;;;;;4447965;28;657015;-73
2023/11/27 12:51:13;;;;;;;12.03;4.90;;;3.70;62.50;;;;;;4435696;28;656220;-72
2023/11/27 12:54:01;;;;;;;4.03;2.10;;;3.10;63.10;;;;;;4437529;28;657618;-72
2023/11/27 12:56:50;;;;;;;11.20;4.20;;;4.00;62.00;;;;;;4440138;28;655242;-71
2023/11/27 12:59:39;;;;;;;8.10;4.27;;;5.40;60.70;;;;;;4463615;27;655978;-71
2023/11/27 13:02:29;;;;;;;5.40;2.75;;;5.90;55.80;;;;;;4438907;28;655678;-73
2023/11/27 13:05:21;;;;;;;4.63;2.13;;;5.20;56.50;;;;;;4433795;27;657553;-72
2023/11/27 13:08:09;;;;;;;8.13;4.20;;;5.10;55.90;;;;;;4406654;27;657538;-72
2023/11/27 13:10:57;;;;;;;5.97;3.43;;;4.00;57.00;;;;;;4454656;27;655773;-73
2023/11/27 13:13:44;;;;;;;8.82;4.13;;;4.30;58.00;;;;;;4433165;27;656108;-73
2023/11/27 13:16:33;;;;;;;7.57;3.00;;;4.30;58.40;;;;;;4457436;28;654879;-73
2023/11/27 13:19:23;;;;;;;11.17;4.70;;;3.50;60.20;;;;;;4435545;27;656649;-73
2023/11/27 13:22:14;;;;;;;11.43;5.40;;;2.80;64.10;;;;;;4426937;27;657688;-73
2023/11/27 13:25:05;;;;;;;11.43;4.60;;;2.50;67.80;;;;;;4428062;27;655959;-70
2023/11/27 13:27:52;;;;;;;11.07;4.30;;;2.50;67.80;;;;;;4427426;27;656770;-72
2023/11/27 13:30:40;;;;;;;9.83;4.60;;;2.20;68.30;;;;;;4459753;28;657635;-73
2023/11/27 13:33:28;;;;;;;10.17;5.03;;;1.90;70.80;;;;;;4429604;28;655753;-71
2023/11/27 13:36:22;;;;;;;8.17;4.20;;;1.40;74.70;;;;;;4456147;27;657814;-73
2023/11/27 13:39:26;;;;;;;8.03;3.67;;;0.80;99.90;;;;;;4425719;28;655958;-72
2023/11/27 13:42:14;;;;;;;11.20;4.00;;;0.70;99.90;;;;;;4434479;27;656109;-71
2023/11/27 13:45:02;;;;;;;9.67;4.60;;;0.40;99.90;;;;;;4458579;27;657104;-73
2023/11/27 13:47:53;;;;;;;9.90;4.40;;;0.20;99.90;;;;;;4443366;27;655344;-71
2023/11/27 13:50:40;;;;;;;10.77;4.90;;;0.00;99.90;;;;;;4434028;27;656652;-72
2023/11/27 13:53:31;;;;;;;11.73;4.73;;;0.00;99.90;;;;;;4445847;27;656884;-71
2023/11/27 13:56:20;;;;;;;15.60;5.33;;;0.00;99.90;;;;;;4430019;28;656728;-72
2023/11/27 13:59:08;;;;;;;14.23;5.70;;;0.00;99.90;;;;;;4461857;27;656251;-72
2023/11/27 14:01:55;;;;;;;15.43;5.43;;;0.00;99.90;;;;;;4451995;28;657017;-71
2023/11/27 14:04:53;;;;;;;24.87;8.10;;;-0.10;99.90;;;;;;4441722;27;656634;-72
2023/11/27 14:07:41;;;;;;;23.00;10.00;;;-0.30;99.90;;;;;;4438330;27;657949;-72
2023/11/27 14:10:43;;;;;;;26.30;9.27;;;-0.40;99.90;;;;;;4435066;28;658846;-71
2023/11/27 14:13:34;;;;;;;23.07;9.40;;;-0.80;99.90;;;;;;4426634;28;658227;-72
2023/11/27 14:16:23;;;;;;;22.93;10.10;;;-0.70;99.90;;;;;;4421405;28;657494;-72